sensor_id;sensor_type;location;lat;lon;timestamp;pressure;altitude;pressure_sealevel;temperature;humidity
57038;BME280;59942;49.304;8.256;2022-09-14T00:01:18;99494.53;;;19.68;70.35
57038;BME280;59942;49.304;8.256;2022-09-14T00:14:19;99483.09;;;19.87;67.73
57038;BME280;59942;49.304;8.256;2022-09-14T00:24:00;99448.03;;;18.93;72.61
57038;BME280;59942;49.304;8.256;2022-09-14T00:26:49;99431.28;;;19.04;71.05
57038;BME280;59942;49.304;8.256;2022-09-14T00:29:22;99427.38;;;19.08;71.64
57038;BME280;59942;49.304;8.256;2022-09-14T00:31:52;99420.34;;;19.08;73.21
57038;BME280;59942;49.304;8.256;2022-09-14T00:37:31;99411.50;;;19.37;67.68
57038;BME280;59942;49.304;8.256;2022-09-14T00:43:14;99353.63;;;19.19;67.14
57038;BME280;59942;49.304;8.256;2022-09-14T00:49:26;99383.09;;;18.66;75.64
57038;BME280;59942;49.304;8.256;2022-09-14T01:08:21;99393.38;;;19.06;75.39
57038;BME280;59942;49.304;8.256;2022-09-14T01:11:19;99406.13;;;18.91;75.28
57038;BME280;59942;49.304;8.256;2022-09-14T01:24:53;99419.59;;;18.30;80.09
57038;BME280;59942;49.304;8.256;2022-09-14T01:33:42;99401.31;;;18.87;73.13
57038;BME280;59942;49.304;8.256;2022-09-14T01:36:35;99420.53;;;18.87;73.34
57038;BME280;59942;49.304;8.256;2022-09-14T01:39:11;99421.50;;;18.77;78.61
57038;BME280;59942;49.304;8.256;2022-09-14T01:44:47;99365.75;;;18.26;79.65
57038;BME280;59942;49.304;8.256;2022-09-14T01:47:26;99421.81;;;18.44;80.49
57038;BME280;59942;49.304;8.256;2022-09-14T01:50:18;99443.94;;;18.42;81.20
57038;BME280;59942;49.304;8.256;2022-09-14T01:52:58;99443.38;;;18.28;79.81
57038;BME280;59942;49.304;8.256;2022-09-14T01:55:41;99433.44;;;18.32;78.31
57038;BME280;59942;49.304;8.256;2022-09-14T02:01:23;99428.56;;;18.66;73.82
57038;BME280;59942;49.304;8.256;2022-09-14T02:04:27;99438.34;;;18.84;72.49
57038;BME280;59942;49.304;8.256;2022-09-14T02:06:58;99421.88;;;18.82;75.49
57038;BME280;59942;49.304;8.256;2022-09-14T02:09:40;99433.41;;;18.51;80.58
57038;BME280;59942;49.304;8.256;2022-09-14T02:12:26;99425.81;;;18.58;74.30
57038;BME280;59942;49.304;8.256;2022-09-14T02:15:28;99417.50;;;18.72;72.14
57038;BME280;59942;49.304;8.256;2022-09-14T02:18:00;99403.34;;;18.83;71.30
57038;BME280;59942;49.304;8.256;2022-09-14T02:27:37;99415.81;;;18.81;71.58
57038;BME280;59942;49.304;8.256;2022-09-14T02:30:47;99425.63;;;18.89;72.97
57038;BME280;59942;49.304;8.256;2022-09-14T02:33:30;99427.28;;;18.80;74.43
57038;BME280;59942;49.304;8.256;2022-09-14T05:20:48;99331.28;;;17.91;80.95
57038;BME280;59942;49.304;8.256;2022-09-14T06:33:51;99292.81;;;18.39;81.34
57038;BME280;59942;49.304;8.256;2022-09-14T06:36:29;99312.81;;;18.40;84.76
57038;BME280;59942;49.304;8.256;2022-09-14T06:38:59;99302.34;;;18.40;79.00
57038;BME280;59942;49.304;8.256;2022-09-14T06:41:37;99282.84;;;18.43;76.21
57038;BME280;59942;49.304;8.256;2022-09-14T06:44:05;99295.28;;;18.50;81.47
57038;BME280;59942;49.304;8.256;2022-09-14T06:46:34;99299.66;;;18.60;81.69
57038;BME280;59942;49.304;8.256;2022-09-14T06:49:09;99293.19;;;18.54;82.45
57038;BME280;59942;49.304;8.256;2022-09-14T06:51:46;99290.44;;;18.46;79.12
57038;BME280;59942;49.304;8.256;2022-09-14T06:54:19;99299.06;;;18.75;81.31
57038;BME280;59942;49.304;8.256;2022-09-14T06:56:50;99291.13;;;18.57;78.09
57038;BME280;59942;49.304;8.256;2022-09-14T06:59:27;99290.75;;;18.70;82.72
57038;BME280;59942;49.304;8.256;2022-09-14T07:02:01;99290.28;;;18.57;79.12
57038;BME280;59942;49.304;8.256;2022-09-14T07:04:34;99298.69;;;18.61;84.22
57038;BME280;59942;49.304;8.256;2022-09-14T07:07:08;99310.19;;;18.50;81.49
57038;BME280;59942;49.304;8.256;2022-09-14T07:12:28;99292.31;;;18.63;76.74
57038;BME280;59942;49.304;8.256;2022-09-14T07:15:06;99257.81;;;18.58;80.65
57038;BME280;59942;49.304;8.256;2022-09-14T07:17:49;99283.44;;;18.74;76.02
57038;BME280;59942;49.304;8.256;2022-09-14T07:20:32;99283.66;;;18.90;80.98
57038;BME280;59942;49.304;8.256;2022-09-14T07:23:01;99286.25;;;19.00;75.76
57038;BME280;59942;49.304;8.256;2022-09-14T07:25:38;99277.75;;;18.79;78.62
57038;BME280;59942;49.304;8.256;2022-09-14T07:28:10;99282.00;;;19.17;81.02
57038;BME280;59942;49.304;8.256;2022-09-14T07:30:46;99237.09;;;18.83;75.50
57038;BME280;59942;49.304;8.256;2022-09-14T07:33:22;99288.97;;;19.08;77.28
57038;BME280;59942;49.304;8.256;2022-09-14T07:39:15;99297.50;;;19.56;76.91
57038;BME280;59942;49.304;8.256;2022-09-14T18:51:53;99255.59;;;20.43;76.02
57038;BME280;59942;49.304;8.256;2022-09-14T18:54:21;99261.22;;;20.48;75.99
57038;BME280;59942;49.304;8.256;2022-09-14T18:56:53;99249.94;;;20.64;77.76
57038;BME280;59942;49.304;8.256;2022-09-14T18:59:32;99239.56;;;20.63;73.74
57038;BME280;59942;49.304;8.256;2022-09-14T19:02:25;99241.78;;;20.76;74.98
57038;BME280;59942;49.304;8.256;2022-09-14T19:04:58;99217.25;;;20.67;75.19
57038;BME280;59942;49.304;8.256;2022-09-14T19:07:26;99237.09;;;20.61;73.83
57038;BME280;59942;49.304;8.256;2022-09-14T19:09:57;99242.56;;;20.68;73.76
57038;BME280;59942;49.304;8.256;2022-09-14T19:12:37;99206.63;;;20.24;78.04
57038;BME280;59942;49.304;8.256;2022-09-14T20:01:43;99270.44;;;20.18;77.71
57038;BME280;59942;49.304;8.256;2022-09-14T20:04:29;99283.13;;;20.23;78.86
57038;BME280;59942;49.304;8.256;2022-09-14T20:07:33;99289.00;;;20.17;79.88
57038;BME280;59942;49.304;8.256;2022-09-14T20:10:20;99291.56;;;20.08;79.21
